sensor_id;sensor_type;location;lat;lon;timestamp;P1;durP1;ratioP1;P2;durP2;ratioP2
45848;SDS011;31567;54.600;9.842;2023-04-24T00:03:04;28.75;;;22.08;;
45848;SDS011;31567;54.600;9.842;2023-04-24T00:06:44;25.10;;;21.60;;
45848;SDS011;31567;54.600;9.842;2023-04-24T00:10:28;28.13;;;23.00;;
45848;SDS011;31567;54.600;9.842;2023-04-24T00:14:08;27.50;;;22.73;;
45848;SDS011;31567;54.600;9.842;2023-04-24T00:17:48;31.70;;;24.67;;
45848;SDS011;31567;54.600;9.842;2023-04-24T00:21:27;28.27;;;23.13;;
45848;SDS011;31567;54.600;9.842;2023-04-24T00:25:07;31.20;;;24.55;;
45848;SDS011;31567;54.600;9.842;2023-04-24T00:28:47;29.90;;;23.30;;
45848;SDS011;31567;54.600;9.842;2023-04-24T00:32:26;28.50;;;23.33;;
45848;SDS011;31567;54.600;9.842;2023-04-24T00:36:06;31.33;;;24.80;;
45848;SDS011;31567;54.600;9.842;2023-04-24T00:39:46;29.17;;;24.73;;
45848;SDS011;31567;54.600;9.842;2023-04-24T00:43:26;30.77;;;24.17;;
45848;SDS011;31567;54.600;9.842;2023-04-24T00:47:05;31.92;;;24.35;;
45848;SDS011;31567;54.600;9.842;2023-04-24T00:50:45;31.20;;;23.48;;
45848;SDS011;31567;54.600;9.842;2023-04-24T00:54:25;30.60;;;25.42;;
45848;SDS011;31567;54.600;9.842;2023-04-24T00:58:05;33.03;;;25.13;;
45848;SDS011;31567;54.600;9.842;2023-04-24T01:01:44;33.58;;;26.20;;
45848;SDS011;31567;54.600;9.842;2023-04-24T01:05:24;32.92;;;25.83;;
45848;SDS011;31567;54.600;9.842;2023-04-24T01:09:04;32.85;;;24.80;;
45848;SDS011;31567;54.600;9.842;2023-04-24T01:12:44;27.88;;;22.85;;
45848;SDS011;31567;54.600;9.842;2023-04-24T01:16:23;29.48;;;22.98;;
45848;SDS011;31567;54.600;9.842;2023-04-24T01:20:03;33.45;;;26.05;;
45848;SDS011;31567;54.600;9.842;2023-04-24T01:23:44;29.70;;;23.15;;
45848;SDS011;31567;54.600;9.842;2023-04-24T01:27:24;26.33;;;22.63;;
45848;SDS011;31567;54.600;9.842;2023-04-24T01:31:04;28.45;;;23.15;;
45848;SDS011;31567;54.600;9.842;2023-04-24T01:34:43;27.42;;;22.30;;
45848;SDS011;31567;54.600;9.842;2023-04-24T01:38:24;26.50;;;20.98;;
45848;SDS011;31567;54.600;9.842;2023-04-24T01:42:04;20.52;;;17.92;;
45848;SDS011;31567;54.600;9.842;2023-04-24T01:45:44;22.40;;;18.30;;
45848;SDS011;31567;54.600;9.842;2023-04-24T01:49:24;21.83;;;17.95;;
45848;SDS011;31567;54.600;9.842;2023-04-24T01:53:04;19.33;;;16.33;;
45848;SDS011;31567;54.600;9.842;2023-04-24T01:56:43;20.38;;;18.15;;
45848;SDS011;31567;54.600;9.842;2023-04-24T02:00:24;19.02;;;16.63;;
45848;SDS011;31567;54.600;9.842;2023-04-24T02:04:04;18.60;;;16.60;;
45848;SDS011;31567;54.600;9.842;2023-04-24T02:07:44;16.05;;;14.45;;
45848;SDS011;31567;54.600;9.842;2023-04-24T02:11:24;15.35;;;13.68;;
45848;SDS011;31567;54.600;9.842;2023-04-24T02:15:04;13.70;;;12.35;;
45848;SDS011;31567;54.600;9.842;2023-04-24T02:18:45;13.43;;;12.02;;
45848;SDS011;31567;54.600;9.842;2023-04-24T02:22:24;15.38;;;12.93;;
45848;SDS011;31567;54.600;9.842;2023-04-24T02:26:04;19.13;;;12.80;;
45848;SDS011;31567;54.600;9.842;2023-04-24T02:29:44;12.05;;;10.82;;
45848;SDS011;31567;54.600;9.842;2023-04-24T02:33:23;11.15;;;10.07;;
45848;SDS011;31567;54.600;9.842;2023-04-24T02:37:03;12.70;;;11.23;;
45848;SDS011;31567;54.600;9.842;2023-04-24T02:40:43;12.82;;;10.35;;
45848;SDS011;31567;54.600;9.842;2023-04-24T02:44:22;10.02;;;9.10;;
45848;SDS011;31567;54.600;9.842;2023-04-24T02:48:02;10.20;;;8.88;;
45848;SDS011;31567;54.600;9.842;2023-04-24T02:51:41;10.82;;;9.73;;
45848;SDS011;31567;54.600;9.842;2023-04-24T02:55:21;10.25;;;9.25;;
45848;SDS011;31567;54.600;9.842;2023-04-24T02:59:00;9.13;;;8.40;;
45848;SDS011;31567;54.600;9.842;2023-04-24T03:02:40;9.43;;;8.40;;
45848;SDS011;31567;54.600;9.842;2023-04-24T03:06:21;9.38;;;8.55;;
45848;SDS011;31567;54.600;9.842;2023-04-24T03:10:00;9.13;;;8.23;;
45848;SDS011;31567;54.600;9.842;2023-04-24T03:13:40;10.07;;;8.80;;
45848;SDS011;31567;54.600;9.842;2023-04-24T03:17:19;9.15;;;8.35;;
45848;SDS011;31567;54.600;9.842;2023-04-24T03:20:59;9.27;;;8.38;;
45848;SDS011;31567;54.600;9.842;2023-04-24T03:24:39;8.82;;;8.13;;
45848;SDS011;31567;54.600;9.842;2023-04-24T03:28:19;9.27;;;8.43;;
45848;SDS011;31567;54.600;9.842;2023-04-24T03:31:59;10.05;;;9.15;;
45848;SDS011;31567;54.600;9.842;2023-04-24T03:35:38;9.40;;;8.50;;
45848;SDS011;31567;54.600;9.842;2023-04-24T03:39:18;9.32;;;8.57;;
45848;SDS011;31567;54.600;9.842;2023-04-24T03:42:57;9.55;;;8.15;;
45848;SDS011;31567;54.600;9.842;2023-04-24T03:46:37;9.40;;;8.57;;
45848;SDS011;31567;54.600;9.842;2023-04-24T03:50:16;8.20;;;7.53;;
45848;SDS011;31567;54.600;9.842;2023-04-24T03:53:56;8.35;;;7.65;;
45848;SDS011;31567;54.600;9.842;2023-04-24T03:57:35;9.45;;;8.57;;
45848;SDS011;31567;54.600;9.842;2023-04-24T04:01:15;9.23;;;8.40;;
45848;SDS011;31567;54.600;9.842;2023-04-24T04:04:55;8.23;;;7.43;;
45848;SDS011;31567;54.600;9.842;2023-04-24T04:08:34;8.27;;;7.65;;
45848;SDS011;31567;54.600;9.842;2023-04-24T04:12:14;7.88;;;7.25;;
45848;SDS011;31567;54.600;9.842;2023-04-24T04:15:53;8.82;;;7.97;;
45848;SDS011;31567;54.600;9.842;2023-04-24T04:19:33;8.32;;;7.13;;
45848;SDS011;31567;54.600;9.842;2023-04-24T04:23:13;7.63;;;6.93;;
45848;SDS011;31567;54.600;9.842;2023-04-24T04:26:52;7.68;;;6.97;;
45848;SDS011;31567;54.600;9.842;2023-04-24T04:30:35;7.20;;;6.53;;
45848;SDS011;31567;54.600;9.842;2023-04-24T04:34:17;7.18;;;5.95;;
45848;SDS011;31567;54.600;9.842;2023-04-24T04:37:57;7.40;;;6.80;;
45848;SDS011;31567;54.600;9.842;2023-04-24T04:41:37;6.45;;;5.95;;
45848;SDS011;31567;54.600;9.842;2023-04-24T04:45:19;6.20;;;5.70;;
45848;SDS011;31567;54.600;9.842;2023-04-24T04:49:02;4.90;;;4.50;;
45848;SDS011;31567;54.600;9.842;2023-04-24T04:52:42;5.13;;;4.60;;
45848;SDS011;31567;54.600;9.842;2023-04-24T04:56:21;4.40;;;4.05;;
45848;SDS011;31567;54.600;9.842;2023-04-24T05:00:01;4.90;;;4.50;;
45848;SDS011;31567;54.600;9.842;2023-04-24T05:03:41;5.05;;;4.65;;
45848;SDS011;31567;54.600;9.842;2023-04-24T05:07:20;5.70;;;5.30;;
45848;SDS011;31567;54.600;9.842;2023-04-24T05:11:00;5.90;;;5.47;;
45848;SDS011;31567;54.600;9.842;2023-04-24T05:14:39;5.18;;;4.78;;
45848;SDS011;31567;54.600;9.842;2023-04-24T05:18:19;5.40;;;5.10;;
45848;SDS011;31567;54.600;9.842;2023-04-24T05:21:59;5.43;;;4.97;;
45848;SDS011;31567;54.600;9.842;2023-04-24T05:25:42;5.65;;;5.25;;
45848;SDS011;31567;54.600;9.842;2023-04-24T05:29:21;5.93;;;5.43;;
45848;SDS011;31567;54.600;9.842;2023-04-24T05:33:01;5.97;;;5.57;;
45848;SDS011;31567;54.600;9.842;2023-04-24T05:36:40;6.20;;;5.70;;
45848;SDS011;31567;54.600;9.842;2023-04-24T05:40:21;5.55;;;5.18;;
45848;SDS011;31567;54.600;9.842;2023-04-24T05:44:01;4.97;;;4.57;;
45848;SDS011;31567;54.600;9.842;2023-04-24T05:47:40;5.45;;;5.03;;
45848;SDS011;31567;54.600;9.842;2023-04-24T05:51:20;4.85;;;4.55;;
45848;SDS011;31567;54.600;9.842;2023-04-24T05:54:59;4.82;;;4.53;;
45848;SDS011;31567;54.600;9.842;2023-04-24T05:58:39;4.63;;;4.28;;
45848;SDS011;31567;54.600;9.842;2023-04-24T06:02:18;4.70;;;4.40;;
45848;SDS011;31567;54.600;9.842;2023-04-24T06:05:58;4.63;;;4.32;;
45848;SDS011;31567;54.600;9.842;2023-04-24T06:09:37;4.68;;;4.38;;
45848;SDS011;31567;54.600;9.842;2023-04-24T06:13:17;5.13;;;4.72;;
45848;SDS011;31567;54.600;9.842;2023-04-24T06:16:56;5.25;;;4.80;;
45848;SDS011;31567;54.600;9.842;2023-04-24T06:20:36;5.68;;;5.10;;
45848;SDS011;31567;54.600;9.842;2023-04-24T06:24:15;5.60;;;5.10;;
45848;SDS011;31567;54.600;9.842;2023-04-24T06:27:55;5.80;;;5.40;;
45848;SDS011;31567;54.600;9.842;2023-04-24T06:31:35;6.25;;;5.85;;
45848;SDS011;31567;54.600;9.842;2023-04-24T06:35:16;5.97;;;5.50;;
45848;SDS011;31567;54.600;9.842;2023-04-24T06:38:55;6.65;;;6.15;;
45848;SDS011;31567;54.600;9.842;2023-04-24T06:42:36;6.10;;;5.55;;
45848;SDS011;31567;54.600;9.842;2023-04-24T06:46:15;6.47;;;5.95;;
45848;SDS011;31567;54.600;9.842;2023-04-24T06:49:55;5.82;;;5.43;;
45848;SDS011;31567;54.600;9.842;2023-04-24T06:53:34;6.43;;;6.03;;
45848;SDS011;31567;54.600;9.842;2023-04-24T06:57:14;6.28;;;5.80;;
45848;SDS011;31567;54.600;9.842;2023-04-24T07:00:55;6.60;;;6.10;;
45848;SDS011;31567;54.600;9.842;2023-04-24T07:04:34;6.53;;;6.03;;
45848;SDS011;31567;54.600;9.842;2023-04-24T07:08:14;5.80;;;5.40;;
45848;SDS011;31567;54.600;9.842;2023-04-24T07:11:55;6.78;;;6.38;;
45848;SDS011;31567;54.600;9.842;2023-04-24T07:15:35;7.30;;;6.70;;
45848;SDS011;31567;54.600;9.842;2023-04-24T07:19:15;6.53;;;6.05;;
45848;SDS011;31567;54.600;9.842;2023-04-24T07:22:54;6.38;;;5.88;;
45848;SDS011;31567;54.600;9.842;2023-04-24T07:26:34;5.72;;;5.32;;
45848;SDS011;31567;54.600;9.842;2023-04-24T07:30:13;5.82;;;5.43;;
45848;SDS011;31567;54.600;9.842;2023-04-24T07:33:53;4.85;;;4.55;;
45848;SDS011;31567;54.600;9.842;2023-04-24T07:37:32;5.00;;;4.57;;
45848;SDS011;31567;54.600;9.842;2023-04-24T07:41:12;4.68;;;4.28;;
45848;SDS011;31567;54.600;9.842;2023-04-24T07:44:52;4.38;;;4.07;;
45848;SDS011;31567;54.600;9.842;2023-04-24T07:48:32;4.85;;;4.55;;
45848;SDS011;31567;54.600;9.842;2023-04-24T07:52:12;5.88;;;5.38;;
45848;SDS011;31567;54.600;9.842;2023-04-24T07:55:52;5.68;;;5.28;;
45848;SDS011;31567;54.600;9.842;2023-04-24T07:59:32;5.88;;;4.80;;
45848;SDS011;31567;54.600;9.842;2023-04-24T08:03:12;5.05;;;4.65;;
45848;SDS011;31567;54.600;9.842;2023-04-24T08:06:52;4.93;;;4.63;;
45848;SDS011;31567;54.600;9.842;2023-04-24T08:10:31;5.00;;;4.60;;
45848;SDS011;31567;54.600;9.842;2023-04-24T08:14:11;5.07;;;4.72;;
45848;SDS011;31567;54.600;9.842;2023-04-24T08:17:52;5.55;;;5.18;;
45848;SDS011;31567;54.600;9.842;2023-04-24T08:21:31;4.80;;;4.40;;
45848;SDS011;31567;54.600;9.842;2023-04-24T08:25:11;5.07;;;4.68;;
45848;SDS011;31567;54.600;9.842;2023-04-24T08:28:51;5.57;;;4.68;;
45848;SDS011;31567;54.600;9.842;2023-04-24T08:32:30;5.57;;;5.18;;
45848;SDS011;31567;54.600;9.842;2023-04-24T08:36:10;5.28;;;4.88;;
45848;SDS011;31567;54.600;9.842;2023-04-24T08:39:50;6.18;;;5.78;;
45848;SDS011;31567;54.600;9.842;2023-04-24T08:43:29;5.45;;;5.03;;
45848;SDS011;31567;54.600;9.842;2023-04-24T08:47:12;6.10;;;5.60;;
45848;SDS011;31567;54.600;9.842;2023-04-24T08:50:51;5.13;;;4.72;;
45848;SDS011;31567;54.600;9.842;2023-04-24T08:54:31;5.18;;;4.68;;
45848;SDS011;31567;54.600;9.842;2023-04-24T08:58:14;5.95;;;5.50;;
45848;SDS011;31567;54.600;9.842;2023-04-24T09:01:55;6.00;;;5.32;;
45848;SDS011;31567;54.600;9.842;2023-04-24T09:05:35;6.18;;;5.68;;
45848;SDS011;31567;54.600;9.842;2023-04-24T09:09:15;5.78;;;5.20;;
45848;SDS011;31567;54.600;9.842;2023-04-24T09:12:56;5.75;;;5.30;;
45848;SDS011;31567;54.600;9.842;2023-04-24T09:16:37;5.65;;;5.15;;
45848;SDS011;31567;54.600;9.842;2023-04-24T09:20:17;5.50;;;5.00;;
45848;SDS011;31567;54.600;9.842;2023-04-24T09:23:57;5.78;;;5.38;;
45848;SDS011;31567;54.600;9.842;2023-04-24T09:27:43;6.22;;;5.47;;
45848;SDS011;31567;54.600;9.842;2023-04-24T09:31:23;6.20;;;5.68;;
45848;SDS011;31567;54.600;9.842;2023-04-24T09:38:49;6.30;;;5.72;;
45848;SDS011;31567;54.600;9.842;2023-04-24T09:42:36;6.07;;;5.68;;
45848;SDS011;31567;54.600;9.842;2023-04-24T09:46:16;5.70;;;5.30;;
45848;SDS011;31567;54.600;9.842;2023-04-24T09:49:57;5.75;;;5.25;;
45848;SDS011;31567;54.600;9.842;2023-04-24T09:53:37;6.60;;;6.00;;
45848;SDS011;31567;54.600;9.842;2023-04-24T09:57:18;5.93;;;5.53;;
45848;SDS011;31567;54.600;9.842;2023-04-24T10:00:57;5.57;;;4.90;;
45848;SDS011;31567;54.600;9.842;2023-04-24T10:04:37;5.88;;;5.30;;
45848;SDS011;31567;54.600;9.842;2023-04-24T10:08:16;5.88;;;5.35;;
45848;SDS011;31567;54.600;9.842;2023-04-24T10:11:56;5.68;;;5.18;;
45848;SDS011;31567;54.600;9.842;2023-04-24T10:15:39;5.47;;;4.97;;
45848;SDS011;31567;54.600;9.842;2023-04-24T10:19:19;5.72;;;5.22;;
45848;SDS011;31567;54.600;9.842;2023-04-24T10:22:59;5.95;;;5.07;;
45848;SDS011;31567;54.600;9.842;2023-04-24T10:26:40;4.72;;;4.32;;
45848;SDS011;31567;54.600;9.842;2023-04-24T10:30:20;4.85;;;4.43;;
45848;SDS011;31567;54.600;9.842;2023-04-24T10:34:00;4.28;;;3.97;;
45848;SDS011;31567;54.600;9.842;2023-04-24T10:37:45;5.60;;;4.65;;
45848;SDS011;31567;54.600;9.842;2023-04-24T10:45:21;6.10;;;5.47;;
45848;SDS011;31567;54.600;9.842;2023-04-24T10:49:05;7.25;;;6.53;;
45848;SDS011;31567;54.600;9.842;2023-04-24T10:52:46;7.53;;;6.88;;
45848;SDS011;31567;54.600;9.842;2023-04-24T10:56:26;7.85;;;7.10;;
45848;SDS011;31567;54.600;9.842;2023-04-24T11:00:16;7.15;;;6.47;;
45848;SDS011;31567;54.600;9.842;2023-04-24T11:04:00;7.22;;;6.63;;
45848;SDS011;31567;54.600;9.842;2023-04-24T11:12:04;7.47;;;6.80;;
45848;SDS011;31567;54.600;9.842;2023-04-24T11:19:51;7.85;;;7.18;;
45848;SDS011;31567;54.600;9.842;2023-04-24T11:23:35;7.25;;;6.55;;
45848;SDS011;31567;54.600;9.842;2023-04-24T11:27:17;8.52;;;7.72;;
45848;SDS011;31567;54.600;9.842;2023-04-24T11:30:58;7.18;;;6.68;;
45848;SDS011;31567;54.600;9.842;2023-04-24T11:39:03;7.73;;;7.13;;
45848;SDS011;31567;54.600;9.842;2023-04-24T11:42:44;7.45;;;6.85;;
45848;SDS011;31567;54.600;9.842;2023-04-24T11:46:30;7.57;;;6.88;;
45848;SDS011;31567;54.600;9.842;2023-04-24T11:50:12;7.32;;;6.72;;
45848;SDS011;31567;54.600;9.842;2023-04-24T11:53:55;7.72;;;7.10;;
45848;SDS011;31567;54.600;9.842;2023-04-24T11:57:35;8.43;;;7.63;;
45848;SDS011;31567;54.600;9.842;2023-04-24T12:01:15;8.48;;;7.63;;
45848;SDS011;31567;54.600;9.842;2023-04-24T12:04:55;9.30;;;8.48;;
45848;SDS011;31567;54.600;9.842;2023-04-24T12:08:35;9.57;;;8.57;;
45848;SDS011;31567;54.600;9.842;2023-04-24T12:12:15;8.65;;;7.85;;
45848;SDS011;31567;54.600;9.842;2023-04-24T12:15:56;9.30;;;8.40;;
45848;SDS011;31567;54.600;9.842;2023-04-24T12:19:36;10.20;;;8.52;;
45848;SDS011;31567;54.600;9.842;2023-04-24T12:23:16;8.60;;;7.80;;
45848;SDS011;31567;54.600;9.842;2023-04-24T12:26:56;9.60;;;8.70;;
45848;SDS011;31567;54.600;9.842;2023-04-24T12:30:45;8.98;;;8.07;;
45848;SDS011;31567;54.600;9.842;2023-04-24T12:34:27;9.88;;;8.85;;
45848;SDS011;31567;54.600;9.842;2023-04-24T12:38:07;10.90;;;9.90;;
45848;SDS011;31567;54.600;9.842;2023-04-24T12:41:57;12.50;;;10.25;;
45848;SDS011;31567;54.600;9.842;2023-04-24T12:45:37;10.50;;;9.43;;
45848;SDS011;31567;54.600;9.842;2023-04-24T12:49:16;10.30;;;9.07;;
45848;SDS011;31567;54.600;9.842;2023-04-24T12:52:56;9.90;;;8.85;;
45848;SDS011;31567;54.600;9.842;2023-04-24T12:56:35;8.40;;;7.60;;
45848;SDS011;31567;54.600;9.842;2023-04-24T13:00:18;9.02;;;8.23;;
45848;SDS011;31567;54.600;9.842;2023-04-24T13:03:58;9.63;;;8.73;;
45848;SDS011;31567;54.600;9.842;2023-04-24T13:07:37;8.55;;;7.75;;
45848;SDS011;31567;54.600;9.842;2023-04-24T13:11:17;10.43;;;8.85;;
45848;SDS011;31567;54.600;9.842;2023-04-24T13:14:57;8.98;;;8.13;;
45848;SDS011;31567;54.600;9.842;2023-04-24T13:18:37;12.63;;;9.88;;
45848;SDS011;31567;54.600;9.842;2023-04-24T13:22:17;9.57;;;8.68;;
45848;SDS011;31567;54.600;9.842;2023-04-24T13:25:59;9.32;;;8.38;;
45848;SDS011;31567;54.600;9.842;2023-04-24T13:29:40;7.18;;;6.53;;
45848;SDS011;31567;54.600;9.842;2023-04-24T13:33:20;6.25;;;5.75;;
45848;SDS011;31567;54.600;9.842;2023-04-24T13:36:59;5.43;;;4.93;;
45848;SDS011;31567;54.600;9.842;2023-04-24T13:40:39;6.47;;;5.53;;
45848;SDS011;31567;54.600;9.842;2023-04-24T13:44:20;5.93;;;5.32;;
45848;SDS011;31567;54.600;9.842;2023-04-24T13:48:00;3.88;;;3.58;;
45848;SDS011;31567;54.600;9.842;2023-04-24T13:51:41;3.63;;;3.33;;
45848;SDS011;31567;54.600;9.842;2023-04-24T13:55:22;4.07;;;3.78;;
45848;SDS011;31567;54.600;9.842;2023-04-24T13:59:01;8.30;;;4.20;;
45848;SDS011;31567;54.600;9.842;2023-04-24T14:02:41;3.95;;;3.65;;
45848;SDS011;31567;54.600;9.842;2023-04-24T14:06:21;3.40;;;3.20;;
45848;SDS011;31567;54.600;9.842;2023-04-24T14:10:01;4.05;;;3.75;;
45848;SDS011;31567;54.600;9.842;2023-04-24T14:13:41;4.38;;;4.07;;
45848;SDS011;31567;54.600;9.842;2023-04-24T14:17:21;3.85;;;3.60;;
45848;SDS011;31567;54.600;9.842;2023-04-24T14:21:00;4.75;;;4.07;;
45848;SDS011;31567;54.600;9.842;2023-04-24T14:24:40;5.47;;;4.97;;
45848;SDS011;31567;54.600;9.842;2023-04-24T14:28:20;6.03;;;5.07;;
45848;SDS011;31567;54.600;9.842;2023-04-24T14:32:00;4.68;;;4.35;;
45848;SDS011;31567;54.600;9.842;2023-04-24T14:35:40;4.20;;;3.90;;
45848;SDS011;31567;54.600;9.842;2023-04-24T14:39:21;2.55;;;2.42;;
45848;SDS011;31567;54.600;9.842;2023-04-24T14:43:00;2.42;;;2.33;;
45848;SDS011;31567;54.600;9.842;2023-04-24T14:46:40;2.03;;;1.92;;
45848;SDS011;31567;54.600;9.842;2023-04-24T14:50:21;2.28;;;2.03;;
45848;SDS011;31567;54.600;9.842;2023-04-24T14:54:00;2.35;;;2.25;;
45848;SDS011;31567;54.600;9.842;2023-04-24T14:57:40;2.28;;;2.17;;
45848;SDS011;31567;54.600;9.842;2023-04-24T15:01:20;1.63;;;1.52;;
45848;SDS011;31567;54.600;9.842;2023-04-24T15:05:00;1.45;;;1.35;;
45848;SDS011;31567;54.600;9.842;2023-04-24T15:08:40;1.42;;;1.42;;
45848;SDS011;31567;54.600;9.842;2023-04-24T15:12:19;1.77;;;1.67;;
45848;SDS011;31567;54.600;9.842;2023-04-24T15:16:00;2.00;;;1.90;;
45848;SDS011;31567;54.600;9.842;2023-04-24T15:19:39;2.65;;;2.45;;
45848;SDS011;31567;54.600;9.842;2023-04-24T15:23:19;4.80;;;2.92;;
45848;SDS011;31567;54.600;9.842;2023-04-24T15:26:59;3.80;;;3.55;;
45848;SDS011;31567;54.600;9.842;2023-04-24T15:30:40;5.30;;;4.82;;
45848;SDS011;31567;54.600;9.842;2023-04-24T15:34:19;5.38;;;4.97;;
45848;SDS011;31567;54.600;9.842;2023-04-24T15:38:00;6.20;;;5.68;;
45848;SDS011;31567;54.600;9.842;2023-04-24T15:41:40;7.38;;;6.68;;
45848;SDS011;31567;54.600;9.842;2023-04-24T15:45:20;9.68;;;7.43;;
45848;SDS011;31567;54.600;9.842;2023-04-24T15:48:59;10.35;;;6.00;;
45848;SDS011;31567;54.600;9.842;2023-04-24T15:52:39;7.30;;;6.60;;
45848;SDS011;31567;54.600;9.842;2023-04-24T15:56:18;7.45;;;6.75;;
45848;SDS011;31567;54.600;9.842;2023-04-24T15:59:58;5.72;;;5.00;;
45848;SDS011;31567;54.600;9.842;2023-04-24T16:03:38;6.70;;;5.53;;
45848;SDS011;31567;54.600;9.842;2023-04-24T16:07:17;5.35;;;4.78;;
45848;SDS011;31567;54.600;9.842;2023-04-24T16:10:57;5.63;;;4.75;;
45848;SDS011;31567;54.600;9.842;2023-04-24T16:14:37;3.00;;;2.70;;
45848;SDS011;31567;54.600;9.842;2023-04-24T16:18:17;4.68;;;3.15;;
45848;SDS011;31567;54.600;9.842;2023-04-24T16:21:56;3.50;;;3.20;;
45848;SDS011;31567;54.600;9.842;2023-04-24T16:25:36;2.00;;;1.90;;
45848;SDS011;31567;54.600;9.842;2023-04-24T16:29:16;2.08;;;1.90;;
45848;SDS011;31567;54.600;9.842;2023-04-24T16:32:56;2.55;;;2.35;;
45848;SDS011;31567;54.600;9.842;2023-04-24T16:36:36;2.53;;;2.20;;
45848;SDS011;31567;54.600;9.842;2023-04-24T16:40:15;2.28;;;2.08;;
45848;SDS011;31567;54.600;9.842;2023-04-24T16:43:55;2.50;;;2.30;;
45848;SDS011;31567;54.600;9.842;2023-04-24T16:47:35;5.10;;;2.75;;
45848;SDS011;31567;54.600;9.842;2023-04-24T16:51:14;6.35;;;4.57;;
45848;SDS011;31567;54.600;9.842;2023-04-24T16:54:54;3.10;;;2.90;;
45848;SDS011;31567;54.600;9.842;2023-04-24T16:58:33;4.75;;;3.00;;
45848;SDS011;31567;54.600;9.842;2023-04-24T17:02:13;3.40;;;3.00;;
45848;SDS011;31567;54.600;9.842;2023-04-24T17:05:53;3.20;;;2.70;;
45848;SDS011;31567;54.600;9.842;2023-04-24T17:09:32;5.53;;;2.90;;
45848;SDS011;31567;54.600;9.842;2023-04-24T17:13:12;5.55;;;3.25;;
45848;SDS011;31567;54.600;9.842;2023-04-24T17:16:52;4.57;;;4.18;;
45848;SDS011;31567;54.600;9.842;2023-04-24T17:20:32;8.05;;;5.60;;
45848;SDS011;31567;54.600;9.842;2023-04-24T17:24:11;6.93;;;4.10;;
45848;SDS011;31567;54.600;9.842;2023-04-24T17:27:51;6.43;;;4.32;;
45848;SDS011;31567;54.600;9.842;2023-04-24T17:31:30;8.15;;;5.45;;
45848;SDS011;31567;54.600;9.842;2023-04-24T17:35:10;7.53;;;5.13;;
45848;SDS011;31567;54.600;9.842;2023-04-24T17:38:49;9.88;;;6.30;;
45848;SDS011;31567;54.600;9.842;2023-04-24T17:42:29;7.82;;;5.93;;
45848;SDS011;31567;54.600;9.842;2023-04-24T17:46:09;10.32;;;6.32;;
45848;SDS011;31567;54.600;9.842;2023-04-24T17:49:48;10.32;;;5.45;;
45848;SDS011;31567;54.600;9.842;2023-04-24T17:53:29;9.13;;;6.43;;
45848;SDS011;31567;54.600;9.842;2023-04-24T17:57:09;9.82;;;6.13;;
45848;SDS011;31567;54.600;9.842;2023-04-24T18:00:48;14.10;;;6.25;;
45848;SDS011;31567;54.600;9.842;2023-04-24T18:04:28;11.30;;;6.20;;
45848;SDS011;31567;54.600;9.842;2023-04-24T18:08:07;8.02;;;5.95;;
45848;SDS011;31567;54.600;9.842;2023-04-24T18:11:47;10.70;;;4.88;;
45848;SDS011;31567;54.600;9.842;2023-04-24T18:15:27;8.68;;;5.38;;
45848;SDS011;31567;54.600;9.842;2023-04-24T18:19:07;9.75;;;6.10;;
45848;SDS011;31567;54.600;9.842;2023-04-24T18:22:47;8.10;;;5.80;;
45848;SDS011;31567;54.600;9.842;2023-04-24T18:26:26;9.90;;;7.03;;
45848;SDS011;31567;54.600;9.842;2023-04-24T18:30:07;13.32;;;6.10;;
45848;SDS011;31567;54.600;9.842;2023-04-24T18:33:47;8.75;;;5.03;;
45848;SDS011;31567;54.600;9.842;2023-04-24T18:37:27;7.78;;;4.47;;
45848;SDS011;31567;54.600;9.842;2023-04-24T18:41:06;12.50;;;5.30;;
45848;SDS011;31567;54.600;9.842;2023-04-24T18:44:46;11.77;;;5.82;;
45848;SDS011;31567;54.600;9.842;2023-04-24T18:48:26;8.88;;;4.65;;
45848;SDS011;31567;54.600;9.842;2023-04-24T18:52:07;7.50;;;4.00;;
45848;SDS011;31567;54.600;9.842;2023-04-24T18:55:47;9.65;;;5.43;;
45848;SDS011;31567;54.600;9.842;2023-04-24T18:59:26;8.45;;;4.60;;
45848;SDS011;31567;54.600;9.842;2023-04-24T19:03:06;6.25;;;3.83;;
45848;SDS011;31567;54.600;9.842;2023-04-24T19:06:46;5.07;;;3.58;;
45848;SDS011;31567;54.600;9.842;2023-04-24T19:10:26;5.38;;;3.85;;
45848;SDS011;31567;54.600;9.842;2023-04-24T19:14:06;7.43;;;3.83;;
45848;SDS011;31567;54.600;9.842;2023-04-24T19:17:46;6.03;;;3.88;;
45848;SDS011;31567;54.600;9.842;2023-04-24T19:21:28;7.25;;;3.78;;
45848;SDS011;31567;54.600;9.842;2023-04-24T19:25:09;5.15;;;3.63;;
45848;SDS011;31567;54.600;9.842;2023-04-24T19:28:48;4.38;;;3.33;;
45848;SDS011;31567;54.600;9.842;2023-04-24T19:32:28;2.53;;;2.33;;
45848;SDS011;31567;54.600;9.842;2023-04-24T19:36:08;3.65;;;2.88;;
45848;SDS011;31567;54.600;9.842;2023-04-24T19:39:47;4.13;;;3.33;;
45848;SDS011;31567;54.600;9.842;2023-04-24T19:43:27;5.07;;;3.22;;
45848;SDS011;31567;54.600;9.842;2023-04-24T19:47:06;3.15;;;2.45;;
45848;SDS011;31567;54.600;9.842;2023-04-24T19:50:46;3.10;;;1.95;;
45848;SDS011;31567;54.600;9.842;2023-04-24T19:54:25;2.65;;;2.45;;
45848;SDS011;31567;54.600;9.842;2023-04-24T19:58:05;3.10;;;2.50;;
45848;SDS011;31567;54.600;9.842;2023-04-24T20:01:44;5.72;;;3.28;;
45848;SDS011;31567;54.600;9.842;2023-04-24T20:05:24;5.78;;;3.72;;
45848;SDS011;31567;54.600;9.842;2023-04-24T20:09:04;4.25;;;3.80;;
45848;SDS011;31567;54.600;9.842;2023-04-24T20:12:43;6.18;;;5.40;;
45848;SDS011;31567;54.600;9.842;2023-04-24T20:16:23;6.03;;;5.43;;
45848;SDS011;31567;54.600;9.842;2023-04-24T20:20:03;9.15;;;5.07;;
45848;SDS011;31567;54.600;9.842;2023-04-24T20:23:43;6.35;;;5.38;;
45848;SDS011;31567;54.600;9.842;2023-04-24T20:27:23;12.90;;;3.78;;
45848;SDS011;31567;54.600;9.842;2023-04-24T20:31:02;5.97;;;4.20;;
45848;SDS011;31567;54.600;9.842;2023-04-24T20:34:42;4.75;;;3.65;;
45848;SDS011;31567;54.600;9.842;2023-04-24T20:38:22;6.20;;;3.22;;
45848;SDS011;31567;54.600;9.842;2023-04-24T20:42:02;6.25;;;3.58;;
45848;SDS011;31567;54.600;9.842;2023-04-24T20:45:42;7.00;;;3.85;;
45848;SDS011;31567;54.600;9.842;2023-04-24T20:49:22;10.70;;;4.72;;
45848;SDS011;31567;54.600;9.842;2023-04-24T20:53:01;5.07;;;3.58;;
45848;SDS011;31567;54.600;9.842;2023-04-24T20:56:41;8.63;;;3.58;;
45848;SDS011;31567;54.600;9.842;2023-04-24T21:00:20;7.03;;;3.50;;
45848;SDS011;31567;54.600;9.842;2023-04-24T21:04:00;7.60;;;3.90;;
45848;SDS011;31567;54.600;9.842;2023-04-24T21:07:40;8.52;;;3.70;;
45848;SDS011;31567;54.600;9.842;2023-04-24T21:11:19;10.65;;;4.65;;
45848;SDS011;31567;54.600;9.842;2023-04-24T21:14:59;5.93;;;3.13;;
45848;SDS011;31567;54.600;9.842;2023-04-24T21:18:39;6.93;;;3.00;;
45848;SDS011;31567;54.600;9.842;2023-04-24T21:22:19;8.07;;;3.70;;
45848;SDS011;31567;54.600;9.842;2023-04-24T21:25:58;13.60;;;3.70;;
45848;SDS011;31567;54.600;9.842;2023-04-24T21:29:38;12.10;;;4.20;;
45848;SDS011;31567;54.600;9.842;2023-04-24T21:33:18;15.68;;;4.15;;
45848;SDS011;31567;54.600;9.842;2023-04-24T21:36:58;6.47;;;3.13;;
45848;SDS011;31567;54.600;9.842;2023-04-24T21:40:37;13.48;;;3.80;;
45848;SDS011;31567;54.600;9.842;2023-04-24T21:44:17;11.57;;;3.88;;
45848;SDS011;31567;54.600;9.842;2023-04-24T21:47:57;16.05;;;4.50;;
45848;SDS011;31567;54.600;9.842;2023-04-24T21:51:37;12.15;;;4.22;;
45848;SDS011;31567;54.600;9.842;2023-04-24T21:55:17;11.68;;;4.30;;
45848;SDS011;31567;54.600;9.842;2023-04-24T21:58:56;21.08;;;4.90;;
45848;SDS011;31567;54.600;9.842;2023-04-24T22:02:36;12.63;;;5.05;;
45848;SDS011;31567;54.600;9.842;2023-04-24T22:06:15;12.35;;;4.03;;
45848;SDS011;31567;54.600;9.842;2023-04-24T22:09:55;11.45;;;4.05;;
45848;SDS011;31567;54.600;9.842;2023-04-24T22:13:34;17.13;;;4.63;;
45848;SDS011;31567;54.600;9.842;2023-04-24T22:17:14;13.73;;;4.95;;
45848;SDS011;31567;54.600;9.842;2023-04-24T22:20:55;20.13;;;5.70;;